Campbell, Texas
Current Conditions -  °F | °C
As of 12:15 PM on Friday 28 Nov 2014 (Local Time) from KGVT Reporting Station
Clear Clear  
Wind Chill: 64°   Ceiling: Unl
Heat Index: 64°   Visibility: 10mi
Dew Point: 43°   Wind: 20mph
Humidity: 45%   Direction: 180°S
Pressure: 30.17"   Gusts: 24mph
Location:  33.15°N, 95.95°W
Report Text: KGVT 281815Z AUTO 18017G21KT 10SM CLR 18/06 A3017 RMK AO2
Loading
Personal Weather Stations






























Interactive Weather Map New forecast layout! Learn more

10-Day Weather Forecast

Advertisements
Track Severe Weather on mobile